Private Wetterstation Sandau
Wetterdaten: Woche 12.11.12 - 18.11.12 (KW46)
Datum Zeit Temp. A. Feuchte A. Luftdruck Regen Wind Richtung Taupunkt Windchill
12.11.2012 00:00 6,2 C 89 % 1018,8 hPa 0,0 l/m 4,3 km/h (1 Bft) W 4,6 C 5,8 C
12.11.2012 01:00 5,6 C 90 % 1019,1 hPa 0,0 l/m 4,0 km/h (1 Bft) W-SW 4,1 C 5,2 C
12.11.2012 02:00 5,1 C 91 % 1019,6 hPa 0,0 l/m 5,1 km/h (1 Bft) W-SW 3,8 C 4,3 C
12.11.2012 03:00 4,6 C 91 % 1020,1 hPa 0,0 l/m 3,6 km/h (1 Bft) S-SW 3,3 C 4,2 C
12.11.2012 04:00 4,9 C 92 % 1020,7 hPa 0,0 l/m 10,2 km/h (2 Bft) W-SW 3,6 C 2,6 C
12.11.2012 05:00 4,9 C 92 % 1021,0 hPa 0,0 l/m 9,3 km/h (2 Bft) W-SW 3,7 C 2,9 C
12.11.2012 06:00 5,1 C 92 % 1021,5 hPa 0,0 l/m 8,1 km/h (2 Bft) W-SW 4,0 C 3,5 C
12.11.2012 07:00 5,9 C 92 % 1022,3 hPa 0,0 l/m 11,0 km/h (2 Bft) W-SW 4,7 C 3,7 C
12.11.2012 08:00 6,4 C 90 % 1023,1 hPa 0,0 l/m 7,7 km/h (2 Bft) W-NW 4,9 C 5,0 C
12.11.2012 09:00 7,0 C 87 % 1023,6 hPa 0,0 l/m 6,5 km/h (2 Bft) W 5,0 C 5,9 C
12.11.2012 10:00 7,7 C 86 % 1024,1 hPa 0,0 l/m 7,2 km/h (2 Bft) W 5,5 C 6,7 C
12.11.2012 11:00 8,1 C 83 % 1024,4 hPa 0,0 l/m 12,7 km/h (3 Bft) W-SW 5,4 C 6,3 C
12.11.2012 12:00 8,9 C 80 % 1024,5 hPa 0,0 l/m 11,7 km/h (2 Bft) W-SW 5,7 C 7,2 C
12.11.2012 13:00 8,8 C 80 % 1024,9 hPa 0,0 l/m 8,1 km/h (2 Bft) W 5,5 C 7,8 C
12.11.2012 14:00 8,4 C 80 % 1025,1 hPa 0,0 l/m 7,2 km/h (2 Bft) W-SW 5,1 C 7,4 C
12.11.2012 15:00 8,3 C 80 % 1025,2 hPa 0,0 l/m 8,1 km/h (2 Bft) W-SW 5,0 C 7,1 C
12.11.2012 16:00 7,9 C 81 % 1025,7 hPa 0,0 l/m 2,7 km/h (1 Bft) W-SW 4,8 C 7,7 C
12.11.2012 17:00 7,5 C 83 % 1026,4 hPa 0,0 l/m 1,9 km/h (1 Bft) W-SW 4,9 C 7,5 C
12.11.2012 18:00 7,3 C 84 % 1026,8 hPa 0,0 l/m 2,0 km/h (1 Bft) S-SW 4,7 C 7,2 C
12.11.2012 19:00 6,9 C 85 % 1027,4 hPa 0,0 l/m 3,2 km/h (1 Bft) S-SW 4,5 C 6,6 C
12.11.2012 20:00 6,9 C 85 % 1027,9 hPa 0,0 l/m 5,6 km/h (1 Bft) SW 4,6 C 6,1 C
12.11.2012 21:00 6,7 C 85 % 1028,3 hPa 0,0 l/m 5,4 km/h (1 Bft) W-SW 4,3 C 6,0 C
12.11.2012 22:00 5,9 C 85 % 1028,7 hPa 0,0 l/m 5,2 km/h (1 Bft) SW 3,5 C 5,2 C
12.11.2012 23:00 5,1 C 86 % 1029,0 hPa 0,0 l/m 4,8 km/h (1 Bft) SW 2,9 C 4,2 C
13.11.2012 00:00 3,8 C 86 % 1029,5 hPa 0,0 l/m 1,0 km/h (0 Bft) SW 1,7 C 3,7 C
13.11.2012 01:00 2,6 C 87 % 1029,9 hPa 0,0 l/m 1,1 km/h (0 Bft) SW 0,7 C 2,6 C
13.11.2012 02:00 2,0 C 89 % 1030,2 hPa 0,0 l/m 0,5 km/h (0 Bft) S 0,4 C 2,0 C
13.11.2012 03:00 1,8 C 90 % 1030,5 hPa 0,0 l/m 1,3 km/h (1 Bft) S 0,4 C 1,8 C
13.11.2012 04:00 1,6 C 90 % 1030,8 hPa 0,0 l/m 1,8 km/h (1 Bft) S-SO 0,2 C 1,6 C
13.11.2012 05:00 1,3 C 91 % 1031,0 hPa 0,0 l/m 2,1 km/h (1 Bft) S-SO 0,0 C 1,2 C
13.11.2012 06:00 1,2 C 91 % 1031,2 hPa 0,0 l/m 2,6 km/h (1 Bft) S-SO -0,1 C 1,2 C
13.11.2012 07:00 0,9 C 91 % 1031,9 hPa 0,0 l/m 3,3 km/h (1 Bft) S-SO -0,4 C 0,6 C
13.11.2012 08:00 1,2 C 91 % 1032,8 hPa 0,0 l/m 1,9 km/h (1 Bft) S-SO -0,1 C 1,1 C
13.11.2012 09:00 2,2 C 92 % 1033,3 hPa 0,0 l/m 3,1 km/h (1 Bft) S 1,0 C 1,8 C
13.11.2012 10:00 3,8 C 92 % 1033,5 hPa 0,0 l/m 2,6 km/h (1 Bft) S-SO 2,6 C 3,6 C
13.11.2012 11:00 5,9 C 89 % 1033,6 hPa 0,0 l/m 4,4 km/h (1 Bft) S-SW 4,3 C 5,4 C
13.11.2012 12:00 7,9 C 83 % 1033,5 hPa 0,0 l/m 4,3 km/h (1 Bft) S-SW 5,2 C 7,6 C
13.11.2012 13:00 9,4 C 77 % 1033,2 hPa 0,0 l/m 7,0 km/h (2 Bft) SW 5,6 C 8,7 C
13.11.2012 14:00 9,9 C 73 % 1032,9 hPa 0,0 l/m 6,2 km/h (2 Bft) S-SW 5,2 C 9,3 C
13.11.2012 15:00 9,0 C 73 % 1033,0 hPa 0,0 l/m 3,7 km/h (1 Bft) S-SO 4,5 C 8,8 C
13.11.2012 16:00 6,6 C 78 % 1033,1 hPa 0,0 l/m 2,9 km/h (1 Bft) SO 3,0 C 6,5 C
13.11.2012 17:00 5,3 C 82 % 1033,1 hPa 0,0 l/m 2,3 km/h (1 Bft) SO 2,4 C 5,3 C
13.11.2012 18:00 4,2 C 83 % 1033,3 hPa 0,0 l/m 0,9 km/h (0 Bft) S-SO 1,6 C 4,2 C
13.11.2012 19:00 3,4 C 85 % 1033,3 hPa 0,0 l/m 2,9 km/h (1 Bft) S-SO 1,2 C 3,3 C
13.11.2012 20:00 3,3 C 87 % 1033,4 hPa 0,0 l/m 3,5 km/h (1 Bft) S-SO 1,4 C 3,1 C
13.11.2012 21:00 3,1 C 87 % 1033,9 hPa 0,0 l/m 1,4 km/h (1 Bft) S-SO 1,2 C 3,1 C
13.11.2012 22:00 2,4 C 88 % 1033,9 hPa 0,0 l/m 0,9 km/h (0 Bft) SO 0,7 C 2,4 C
13.11.2012 23:00 1,7 C 89 % 1033,9 hPa 0,0 l/m 0,8 km/h (0 Bft) O-SO 0,0 C 1,7 C
14.11.2012 00:00 1,3 C 90 % 1034,1 hPa 0,0 l/m 1,0 km/h (0 Bft) O-SO -0,2 C 1,3 C
14.11.2012 01:00 1,0 C 90 % 1034,0 hPa 0,0 l/m 1,4 km/h (1 Bft) O-SO -0,4 C 0,9 C
14.11.2012 02:00 0,9 C 90 % 1034,0 hPa 0,0 l/m 2,0 km/h (1 Bft) SO -0,5 C 0,9 C
14.11.2012 03:00 0,5 C 91 % 1033,8 hPa 0,0 l/m 2,0 km/h (1 Bft) SO -0,8 C 0,4 C
14.11.2012 04:00 0,2 C 91 % 1033,5 hPa 0,0 l/m 1,5 km/h (1 Bft) O-SO -1,1 C 0,1 C
14.11.2012 05:00 -0,1 C 91 % 1033,4 hPa 0,0 l/m 2,2 km/h (1 Bft) O-SO -1,4 C -0,2 C
14.11.2012 06:00 -0,3 C 92 % 1033,4 hPa 0,0 l/m 0,6 km/h (0 Bft) O-SO -1,5 C -0,3 C
14.11.2012 07:00 -0,7 C 92 % 1033,4 hPa 0,0 l/m 1,1 km/h (1 Bft) O-SO -1,8 C -0,8 C
14.11.2012 08:00 -0,5 C 92 % 1033,5 hPa 0,0 l/m 2,2 km/h (1 Bft) O-SO -1,6 C -0,7 C
14.11.2012 09:00 0,5 C 92 % 1033,7 hPa 0,0 l/m 2,5 km/h (1 Bft) SO -0,7 C 0,4 C
14.11.2012 10:00 2,0 C 92 % 1033,6 hPa 0,0 l/m 3,5 km/h (1 Bft) O 0,9 C 1,4 C
14.11.2012 11:00 3,9 C 90 % 1033,1 hPa 0,0 l/m 3,9 km/h (1 Bft) O 2,4 C 3,5 C
14.11.2012 12:00 5,6 C 87 % 1032,4 hPa 0,0 l/m 3,7 km/h (1 Bft) O-SO 3,6 C 5,2 C
14.11.2012 13:00 7,0 C 83 % 1031,8 hPa 0,0 l/m 2,2 km/h (1 Bft) O-SO 4,3 C 7,0 C
14.11.2012 14:00 7,4 C 79 % 1031,3 hPa 0,0 l/m 3,7 km/h (1 Bft) O-SO 4,1 C 7,1 C
14.11.2012 15:00 6,8 C 79 % 1031,0 hPa 0,0 l/m 2,3 km/h (1 Bft) SO 3,5 C 6,7 C
14.11.2012 16:00 5,0 C 82 % 1030,9 hPa 0,0 l/m 1,1 km/h (1 Bft) SO 2,3 C 5,0 C
14.11.2012 17:00 3,3 C 86 % 1030,8 hPa 0,0 l/m 1,6 km/h (1 Bft) O-SO 1,2 C 3,3 C
14.11.2012 18:00 2,6 C 89 % 1030,5 hPa 0,0 l/m 1,6 km/h (1 Bft) O-SO 0,9 C 2,5 C
14.11.2012 19:00 2,0 C 90 % 1030,2 hPa 0,0 l/m 3,4 km/h (1 Bft) O-SO 0,5 C 1,8 C
14.11.2012 20:00 1,5 C 91 % 1029,9 hPa 0,0 l/m 2,9 km/h (1 Bft) O-SO 0,1 C 1,4 C
14.11.2012 21:00 0,9 C 91 % 1029,5 hPa 0,0 l/m 2,0 km/h (1 Bft) O-SO -0,4 C 0,7 C
14.11.2012 22:00 0,1 C 91 % 1028,9 hPa 0,0 l/m 3,3 km/h (1 Bft) O-SO -1,2 C -0,3 C
14.11.2012 23:00 -0,4 C 92 % 1028,4 hPa 0,0 l/m 2,5 km/h (1 Bft) O-SO -1,6 C -0,4 C
15.11.2012 00:00 -0,9 C 92 % 1028,0 hPa 0,0 l/m 1,1 km/h (1 Bft) O-SO -2,0 C -0,9 C
15.11.2012 01:00 -1,5 C 92 % 1027,7 hPa 0,0 l/m 0,4 km/h (0 Bft) O -2,6 C -1,5 C
15.11.2012 02:00 -1,5 C 92 % 1027,5 hPa 0,0 l/m 0,3 km/h (0 Bft) O -2,7 C -1,5 C
15.11.2012 03:00 -2,4 C 92 % 1027,1 hPa 0,0 l/m 1,0 km/h (0 Bft) SO -3,5 C -2,4 C
15.11.2012 04:00 -2,8 C 92 % 1026,7 hPa 0,0 l/m 0,6 km/h (0 Bft) SO -3,9 C -2,8 C
15.11.2012 05:00 -3,1 C 92 % 1026,4 hPa 0,0 l/m 0,3 km/h (0 Bft) SO -4,2 C -3,1 C
15.11.2012 06:00 -2,9 C 92 % 1026,4 hPa 0,0 l/m 0,0 km/h (0 Bft) N -4,0 C -2,9 C
15.11.2012 07:00 -2,6 C 92 % 1026,5 hPa 0,0 l/m 0,0 km/h (0 Bft) N -3,7 C -2,6 C
15.11.2012 08:00 -2,4 C 92 % 1026,8 hPa 0,0 l/m 0,0 km/h (0 Bft) N -3,5 C -2,4 C
15.11.2012 09:00 -2,1 C 92 % 1026,9 hPa 0,0 l/m 0,0 km/h (0 Bft) N -3,3 C -2,1 C
15.11.2012 10:00 -1,4 C 93 % 1026,9 hPa 0,0 l/m 2,5 km/h (1 Bft) N-NO -2,4 C -2,0 C
15.11.2012 11:00 -1,1 C 92 % 1026,7 hPa 0,0 l/m 0,3 km/h (0 Bft) O -2,2 C -1,1 C
15.11.2012 12:00 -0,5 C 92 % 1026,4 hPa 0,0 l/m 1,4 km/h (1 Bft) SO -1,7 C -0,5 C
15.11.2012 13:00 -0,2 C 92 % 1026,0 hPa 0,0 l/m 0,4 km/h (0 Bft) S-SO -1,3 C -0,2 C
15.11.2012 14:00 -0,5 C 91 % 1025,6 hPa 0,0 l/m 0,2 km/h (0 Bft) NO -1,7 C -0,5 C
15.11.2012 15:00 -0,8 C 92 % 1025,4 hPa 0,0 l/m 0,0 km/h (0 Bft) N -1,9 C -0,8 C
15.11.2012 16:00 -0,8 C 92 % 1025,4 hPa 0,0 l/m 0,7 km/h (0 Bft) SO -1,9 C -0,8 C
15.11.2012 17:00 -0,7 C 92 % 1025,3 hPa 0,0 l/m 0,0 km/h (0 Bft) N -1,9 C -0,7 C
15.11.2012 18:00 -1,0 C 92 % 1025,4 hPa 0,0 l/m 0,0 km/h (0 Bft) N -2,1 C -1,0 C
15.11.2012 19:00 -1,2 C 93 % 1025,4 hPa 0,0 l/m 0,0 km/h (0 Bft) N -2,3 C -1,2 C
15.11.2012 20:00 -1,5 C 93 % 1025,3 hPa 0,0 l/m 0,0 km/h (0 Bft) N -2,5 C -1,5 C
15.11.2012 21:00 -1,4 C 93 % 1025,2 hPa 0,0 l/m 0,0 km/h (0 Bft) N -2,4 C -1,4 C
15.11.2012 22:00 -1,3 C 93 % 1025,2 hPa 0,0 l/m 0,0 km/h (0 Bft) N -2,3 C -1,3 C
15.11.2012 23:00 -1,5 C 93 % 1025,0 hPa 0,0 l/m 0,0 km/h (0 Bft) N -2,4 C -1,5 C
16.11.2012 00:00 -1,4 C 93 % 1024,8 hPa 0,0 l/m 0,0 km/h (0 Bft) N -2,4 C -1,4 C
16.11.2012 01:00 -1,6 C 93 % 1024,6 hPa 0,0 l/m 0,0 km/h (0 Bft) N -2,5 C -1,6 C
16.11.2012 02:00 -1,5 C 93 % 1024,5 hPa 0,0 l/m 0,0 km/h (0 Bft) N -2,5 C -1,5 C
16.11.2012 03:00 -1,5 C 93 % 1024,2 hPa 0,0 l/m 0,0 km/h (0 Bft) N -2,5 C -1,5 C
16.11.2012 04:00 -1,1 C 93 % 1023,5 hPa 0,0 l/m 0,0 km/h (0 Bft) N -2,1 C -1,1 C
16.11.2012 05:00 -0,9 C 93 % 1023,4 hPa 0,0 l/m 0,0 km/h (0 Bft) N -1,9 C -0,9 C
16.11.2012 06:00 -0,7 C 93 % 1023,2 hPa 0,0 l/m 0,0 km/h (0 Bft) N -1,7 C -0,7 C
16.11.2012 07:00 -0,6 C 93 % 1023,1 hPa 0,0 l/m 0,0 km/h (0 Bft) N -1,6 C -0,6 C
16.11.2012 08:00 -0,3 C 93 % 1023,2 hPa 0,0 l/m 0,0 km/h (0 Bft) N -1,3 C -0,3 C
16.11.2012 09:00 -0,1 C 93 % 1023,3 hPa 0,0 l/m 0,0 km/h (0 Bft) N -1,1 C -0,1 C
16.11.2012 10:00 0,3 C 93 % 1023,2 hPa 0,0 l/m 0,0 km/h (0 Bft) N -0,7 C 0,3 C
16.11.2012 11:00 0,6 C 93 % 1022,6 hPa 0,0 l/m 0,0 km/h (0 Bft) N -0,4 C 0,6 C
16.11.2012 12:00 1,1 C 93 % 1022,1 hPa 0,0 l/m 1,6 km/h (1 Bft) SO 0,0 C 0,9 C
16.11.2012 13:00 1,5 C 92 % 1021,6 hPa 0,0 l/m 6,4 km/h (2 Bft) SO 0,3 C -0,1 C
16.11.2012 14:00 1,6 C 92 % 1021,2 hPa 0,0 l/m 4,1 km/h (1 Bft) SO 0,4 C 0,8 C
16.11.2012 15:00 1,5 C 91 % 1020,9 hPa 0,0 l/m 3,5 km/h (1 Bft) SO 0,2 C 0,9 C
16.11.2012 16:00 1,4 C 91 % 1020,9 hPa 0,0 l/m 2,9 km/h (1 Bft) S-SO 0,0 C 0,9 C
16.11.2012 17:00 1,3 C 91 % 1020,8 hPa 0,0 l/m 2,1 km/h (1 Bft) S-SO -0,0 C 1,3 C
16.11.2012 18:00 1,3 C 91 % 1020,6 hPa 0,0 l/m 2,2 km/h (1 Bft) S-SO -0,0 C 1,2 C
16.11.2012 19:00 1,1 C 90 % 1020,3 hPa 0,0 l/m 4,7 km/h (1 Bft) S-SO -0,3 C 0,1 C
16.11.2012 20:00 1,1 C 89 % 1020,0 hPa 0,0 l/m 2,1 km/h (1 Bft) S-SO -0,5 C 0,9 C
16.11.2012 21:00 1,1 C 89 % 1019,8 hPa 0,0 l/m 5,1 km/h (1 Bft) S-SO -0,5 C -0,1 C
16.11.2012 22:00 1,1 C 88 % 1019,4 hPa 0,0 l/m 5,5 km/h (1 Bft) S-SW -0,6 C -0,3 C
16.11.2012 23:00 1,1 C 89 % 1019,1 hPa 0,0 l/m 2,7 km/h (1 Bft) S-SO -0,5 C 0,7 C
17.11.2012 00:00 1,1 C 89 % 1018,6 hPa 0,0 l/m 2,4 km/h (1 Bft) SO -0,5 C 1,0 C
17.11.2012 01:00 1,2 C 90 % 1018,0 hPa 0,0 l/m 1,8 km/h (1 Bft) SO -0,3 C 1,2 C
17.11.2012 02:00 1,3 C 90 % 1017,7 hPa 0,0 l/m 1,8 km/h (1 Bft) SO -0,2 C 1,2 C
17.11.2012 03:00 1,4 C 90 % 1017,2 hPa 0,0 l/m 3,0 km/h (1 Bft) S-SO -0,0 C 1,1 C
17.11.2012 04:00 1,6 C 90 % 1016,4 hPa 0,0 l/m 6,1 km/h (2 Bft) SO 0,1 C 0,1 C
17.11.2012 05:00 1,6 C 89 % 1016,2 hPa 0,0 l/m 4,6 km/h (1 Bft) S-SO -0,0 C 0,8 C
17.11.2012 06:00 1,6 C 89 % 1016,1 hPa 0,0 l/m 3,9 km/h (1 Bft) S-SO -0,0 C 1,1 C
17.11.2012 07:00 1,5 C 89 % 1016,1 hPa 0,0 l/m 4,3 km/h (1 Bft) S-SO -0,1 C 0,7 C
17.11.2012 08:00 1,4 C 88 % 1016,1 hPa 0,0 l/m 4,9 km/h (1 Bft) SO -0,3 C 0,2 C
17.11.2012 09:00 1,3 C 88 % 1015,4 hPa 0,0 l/m 7,4 km/h (2 Bft) S-SO -0,5 C -0,7 C
17.11.2012 10:00 1,7 C 88 % 1015,2 hPa 0,0 l/m 5,2 km/h (1 Bft) SO -0,2 C 0,6 C
17.11.2012 11:00 2,4 C 86 % 1014,6 hPa 0,0 l/m 5,6 km/h (1 Bft) S-SO 0,3 C 0,9 C
17.11.2012 12:00 3,4 C 84 % 1013,7 hPa 0,0 l/m 5,7 km/h (1 Bft) SO 0,9 C 2,2 C
17.11.2012 13:00 4,4 C 83 % 1013,3 hPa 0,0 l/m 3,1 km/h (1 Bft) S-SO 1,7 C 4,2 C
17.11.2012 14:00 5,0 C 80 % 1012,8 hPa 0,0 l/m 3,8 km/h (1 Bft) S 1,8 C 4,6 C
17.11.2012 15:00 3,9 C 81 % 1012,4 hPa 0,0 l/m 3,9 km/h (1 Bft) S-SO 0,9 C 3,5 C
17.11.2012 16:00 2,0 C 84 % 1012,0 hPa 0,0 l/m 1,3 km/h (1 Bft) O-SO -0,3 C 2,0 C
17.11.2012 17:00 1,0 C 89 % 1011,8 hPa 0,0 l/m 7,3 km/h (2 Bft) SO -0,6 C -0,9 C
17.11.2012 18:00 1,0 C 92 % 1011,6 hPa 0,0 l/m 7,4 km/h (2 Bft) SO -0,2 C -1,0 C
17.11.2012 19:00 1,3 C 93 % 1011,4 hPa 0,0 l/m 7,4 km/h (2 Bft) SO 0,3 C -0,6 C
17.11.2012 20:00 1,5 C 93 % 1011,5 hPa 0,0 l/m 3,9 km/h (1 Bft) O-SO 0,5 C 0,7 C
17.11.2012 21:00 1,6 C 93 % 1011,5 hPa 0,0 l/m 4,2 km/h (1 Bft) S-SO 0,6 C 0,9 C
17.11.2012 22:00 1,4 C 93 % 1011,5 hPa 0,0 l/m 3,4 km/h (1 Bft) S-SO 0,4 C 1,1 C
17.11.2012 23:00 1,3 C 93 % 1011,5 hPa 0,0 l/m 1,2 km/h (1 Bft) S-SO 0,3 C 1,3 C
18.11.2012 00:00 1,2 C 93 % 1011,6 hPa 0,0 l/m 2,2 km/h (1 Bft) S-SO 0,1 C 1,2 C
18.11.2012 01:00 0,8 C 93 % 1011,6 hPa 0,0 l/m 1,7 km/h (1 Bft) S-SO -0,2 C 0,8 C
18.11.2012 02:00 1,0 C 93 % 1011,5 hPa 0,0 l/m 3,1 km/h (1 Bft) S-SO -0,0 C 0,7 C
18.11.2012 03:00 1,3 C 93 % 1011,2 hPa 0,0 l/m 3,7 km/h (1 Bft) S-SO 0,3 C 0,8 C
18.11.2012 04:00 1,4 C 93 % 1011,1 hPa 0,0 l/m 4,0 km/h (1 Bft) S-SO 0,4 C 0,5 C
18.11.2012 05:00 1,8 C 93 % 1011,2 hPa 0,0 l/m 3,2 km/h (1 Bft) S-SO 0,8 C 1,4 C
18.11.2012 06:00 2,2 C 92 % 1011,2 hPa 0,0 l/m 4,4 km/h (1 Bft) S 1,1 C 1,5 C
18.11.2012 07:00 2,5 C 92 % 1011,4 hPa 0,0 l/m 5,7 km/h (1 Bft) S-SW 1,4 C 1,1 C
18.11.2012 08:00 2,9 C 93 % 1011,7 hPa 0,0 l/m 4,3 km/h (1 Bft) S 1,9 C 2,1 C
18.11.2012 09:00 3,3 C 93 % 1012,0 hPa 0,0 l/m 4,7 km/h (1 Bft) S 2,3 C 2,4 C
18.11.2012 10:00 3,9 C 94 % 1012,2 hPa 0,0 l/m 4,7 km/h (1 Bft) S-SW 3,0 C 3,1 C
18.11.2012 11:00 4,9 C 93 % 1012,3 hPa 0,0 l/m 4,0 km/h (1 Bft) S 3,9 C 4,6 C
18.11.2012 12:00 5,3 C 93 % 1012,2 hPa 0,0 l/m 3,9 km/h (1 Bft) SW 4,3 C 5,1 C
18.11.2012 13:00 5,7 C 93 % 1012,3 hPa 0,0 l/m 2,5 km/h (1 Bft) S-SW 4,6 C 5,6 C
18.11.2012 14:00 5,9 C 93 % 1012,6 hPa 0,0 l/m 3,2 km/h (1 Bft) S-SW 4,8 C 5,5 C
18.11.2012 15:00 5,9 C 93 % 1013,2 hPa 0,0 l/m 2,2 km/h (1 Bft) S-SW 4,9 C 5,8 C
18.11.2012 16:00 5,9 C 93 % 1013,5 hPa 0,0 l/m 2,1 km/h (1 Bft) S-SW 4,9 C 5,8 C
18.11.2012 17:00 5,9 C 93 % 1014,2 hPa 0,0 l/m 1,2 km/h (1 Bft) S-SW 4,9 C 5,9 C
18.11.2012 18:00 6,0 C 93 % 1015,0 hPa 0,0 l/m 0,7 km/h (0 Bft) W 4,9 C 6,0 C
18.11.2012 19:00 6,4 C 94 % 1015,8 hPa 1,0 l/m 2,7 km/h (1 Bft) N 5,4 C 6,2 C
18.11.2012 20:00 6,4 C 94 % 1016,4 hPa 0,0 l/m 3,8 km/h (1 Bft) N-NO 5,5 C 6,0 C
18.11.2012 21:00 6,1 C 94 % 1017,0 hPa 0,0 l/m 1,3 km/h (1 Bft) N 5,2 C 6,1 C
18.11.2012 22:00 5,8 C 94 % 1017,5 hPa 0,0 l/m 0,1 km/h (0 Bft) N 4,9 C 5,8 C
18.11.2012 23:00 5,5 C 94 % 1018,3 hPa 0,0 l/m 0,0 km/h (0 Bft) N 4,6 C 5,5 C
Min-Datum _ 15.11.12 13.11.12 18.11.12 - 12.11.12 - 15.11.12 15.11.12
_ Min-Zeit 05:11 14:16 04:36 - 01:56 - 05:11 10:46
Minimum _ -3,1 C 71 % 1010,9 hPa - 0,0 km/h (0 Bft) - -4,2 C -7,8 C
Max-Datum _ 13.11.12 18.11.12 14.11.12 18.11.12 15.11.12 - 12.11.12 13.11.12
_ Max-Zeit 13:56 10:31 00:41 19:01 10:46 - 12:31 13:56
Maximum _ 9,9 C 94 % 1034,3 hPa 1,0 l/m 28,8 km/h
N-NO (4 Bft)
- 6,0 C 9,9 C
Durchschnitt _ 2,5 C 90 % 1023,5 hPa #1,0 l/m 3,0 km/h (1 Bft) S-SO 0,9 C 2,1 C
(c) by David Heller